sensor_id;sensor_type;location;lat;lon;timestamp;P1;durP1;ratioP1;P2;durP2;ratioP2
27576;SDS011;15011;53.380;10.034;2022-11-20T00:04:25;33.25;;;15.43;;
27576;SDS011;15011;53.380;10.034;2022-11-20T00:09:25;18.92;;;11.32;;
27576;SDS011;15011;53.380;10.034;2022-11-20T00:14:26;14.73;;;8.48;;
27576;SDS011;15011;53.380;10.034;2022-11-20T00:19:26;11.25;;;8.43;;
27576;SDS011;15011;53.380;10.034;2022-11-20T00:24:27;11.57;;;8.15;;
27576;SDS011;15011;53.380;10.034;2022-11-20T00:29:27;13.98;;;8.10;;
27576;SDS011;15011;53.380;10.034;2022-11-20T00:34:28;15.10;;;9.60;;
27576;SDS011;15011;53.380;10.034;2022-11-20T00:39:28;14.50;;;9.32;;
27576;SDS011;15011;53.380;10.034;2022-11-20T00:44:28;14.40;;;9.15;;
27576;SDS011;15011;53.380;10.034;2022-11-20T00:49:29;13.45;;;8.68;;
27576;SDS011;15011;53.380;10.034;2022-11-20T00:54:30;14.18;;;9.15;;
27576;SDS011;15011;53.380;10.034;2022-11-20T00:59:30;11.57;;;7.93;;
27576;SDS011;15011;53.380;10.034;2022-11-20T01:04:30;15.15;;;8.05;;
27576;SDS011;15011;53.380;10.034;2022-11-20T01:09:31;13.45;;;8.57;;
27576;SDS011;15011;53.380;10.034;2022-11-20T01:14:31;15.98;;;8.60;;
27576;SDS011;15011;53.380;10.034;2022-11-20T01:19:32;11.75;;;8.55;;
27576;SDS011;15011;53.380;10.034;2022-11-20T01:24:32;10.90;;;7.53;;
27576;SDS011;15011;53.380;10.034;2022-11-20T01:29:33;10.98;;;7.57;;
27576;SDS011;15011;53.380;10.034;2022-11-20T01:34:33;11.90;;;6.80;;
27576;SDS011;15011;53.380;10.034;2022-11-20T01:39:34;10.05;;;6.93;;
27576;SDS011;15011;53.380;10.034;2022-11-20T01:44:56;10.05;;;6.03;;
27576;SDS011;15011;53.380;10.034;2022-11-20T01:49:58;11.57;;;6.97;;
27576;SDS011;15011;53.380;10.034;2022-11-20T01:55:07;11.75;;;6.88;;
27576;SDS011;15011;53.380;10.034;2022-11-20T02:00:27;8.73;;;6.15;;
27576;SDS011;15011;53.380;10.034;2022-11-20T02:10:46;11.57;;;6.45;;
27576;SDS011;15011;53.380;10.034;2022-11-20T02:15:46;9.90;;;6.40;;
27576;SDS011;15011;53.380;10.034;2022-11-20T02:20:48;11.23;;;6.88;;
27576;SDS011;15011;53.380;10.034;2022-11-20T02:25:50;14.43;;;7.22;;
27576;SDS011;15011;53.380;10.034;2022-11-20T02:30:51;9.85;;;7.07;;
27576;SDS011;15011;53.380;10.034;2022-11-20T02:35:52;10.60;;;6.15;;
27576;SDS011;15011;53.380;10.034;2022-11-20T02:40:52;10.73;;;7.15;;
27576;SDS011;15011;53.380;10.034;2022-11-20T02:45:53;8.70;;;6.10;;
27576;SDS011;15011;53.380;10.034;2022-11-20T02:50:53;7.45;;;5.30;;
27576;SDS011;15011;53.380;10.034;2022-11-20T02:55:54;9.82;;;6.20;;
27576;SDS011;15011;53.380;10.034;2022-11-20T03:00:54;10.88;;;6.28;;
27576;SDS011;15011;53.380;10.034;2022-11-20T03:05:54;11.60;;;6.63;;
27576;SDS011;15011;53.380;10.034;2022-11-20T03:10:55;7.78;;;5.85;;
27576;SDS011;15011;53.380;10.034;2022-11-20T03:15:55;8.18;;;6.50;;
27576;SDS011;15011;53.380;10.034;2022-11-20T03:20:59;8.43;;;6.68;;
27576;SDS011;15011;53.380;10.034;2022-11-20T03:26:09;11.25;;;6.80;;
27576;SDS011;15011;53.380;10.034;2022-11-20T03:31:17;10.75;;;7.20;;
27576;SDS011;15011;53.380;10.034;2022-11-20T03:36:19;14.13;;;7.30;;
27576;SDS011;15011;53.380;10.034;2022-11-20T03:41:22;12.50;;;7.32;;
27576;SDS011;15011;53.380;10.034;2022-11-20T03:46:24;11.18;;;7.07;;
27576;SDS011;15011;53.380;10.034;2022-11-20T03:51:26;10.05;;;6.95;;
27576;SDS011;15011;53.380;10.034;2022-11-20T03:56:29;11.30;;;6.70;;
27576;SDS011;15011;53.380;10.034;2022-11-20T04:01:33;10.32;;;6.90;;
27576;SDS011;15011;53.380;10.034;2022-11-20T04:06:36;11.43;;;7.15;;
27576;SDS011;15011;53.380;10.034;2022-11-20T04:11:37;8.88;;;5.97;;
27576;SDS011;15011;53.380;10.034;2022-11-20T04:16:39;9.77;;;6.72;;
27576;SDS011;15011;53.380;10.034;2022-11-20T04:21:40;9.50;;;7.15;;
27576;SDS011;15011;53.380;10.034;2022-11-20T04:26:41;11.68;;;8.02;;
27576;SDS011;15011;53.380;10.034;2022-11-20T04:31:42;16.05;;;7.00;;
27576;SDS011;15011;53.380;10.034;2022-11-20T04:36:42;12.18;;;8.05;;
27576;SDS011;15011;53.380;10.034;2022-11-20T04:41:43;12.50;;;8.05;;
27576;SDS011;15011;53.380;10.034;2022-11-20T04:46:43;12.07;;;7.93;;
27576;SDS011;15011;53.380;10.034;2022-11-20T04:51:44;13.73;;;8.85;;
27576;SDS011;15011;53.380;10.034;2022-11-20T04:56:44;14.25;;;8.70;;
27576;SDS011;15011;53.380;10.034;2022-11-20T05:01:44;12.63;;;8.43;;
27576;SDS011;15011;53.380;10.034;2022-11-20T05:06:45;12.95;;;8.93;;
27576;SDS011;15011;53.380;10.034;2022-11-20T05:11:46;15.30;;;9.75;;
27576;SDS011;15011;53.380;10.034;2022-11-20T05:16:46;12.50;;;8.88;;
27576;SDS011;15011;53.380;10.034;2022-11-20T05:21:47;15.27;;;9.13;;
27576;SDS011;15011;53.380;10.034;2022-11-20T05:26:47;16.23;;;9.43;;
27576;SDS011;15011;53.380;10.034;2022-11-20T05:31:47;13.93;;;9.75;;
27576;SDS011;15011;53.380;10.034;2022-11-20T05:36:48;14.38;;;9.07;;
27576;SDS011;15011;53.380;10.034;2022-11-20T05:41:48;12.68;;;8.55;;
27576;SDS011;15011;53.380;10.034;2022-11-20T05:47:09;13.73;;;8.60;;
27576;SDS011;15011;53.380;10.034;2022-11-20T05:52:09;16.08;;;9.45;;
27576;SDS011;15011;53.380;10.034;2022-11-20T05:57:10;16.13;;;9.10;;
27576;SDS011;15011;53.380;10.034;2022-11-20T06:02:10;14.68;;;8.90;;
27576;SDS011;15011;53.380;10.034;2022-11-20T06:07:11;12.98;;;8.52;;
27576;SDS011;15011;53.380;10.034;2022-11-20T06:12:11;14.57;;;9.60;;
27576;SDS011;15011;53.380;10.034;2022-11-20T06:17:12;15.13;;;10.05;;
27576;SDS011;15011;53.380;10.034;2022-11-20T06:22:13;19.45;;;12.40;;
27576;SDS011;15011;53.380;10.034;2022-11-20T06:27:13;18.50;;;11.27;;
27576;SDS011;15011;53.380;10.034;2022-11-20T06:32:14;16.95;;;12.35;;
27576;SDS011;15011;53.380;10.034;2022-11-20T06:37:14;20.45;;;13.38;;
27576;SDS011;15011;53.380;10.034;2022-11-20T06:42:15;20.52;;;13.40;;
27576;SDS011;15011;53.380;10.034;2022-11-20T06:47:15;21.15;;;13.93;;
27576;SDS011;15011;53.380;10.034;2022-11-20T06:52:16;20.25;;;13.50;;
27576;SDS011;15011;53.380;10.034;2022-11-20T06:57:16;21.88;;;14.50;;
27576;SDS011;15011;53.380;10.034;2022-11-20T07:02:17;24.65;;;14.15;;
27576;SDS011;15011;53.380;10.034;2022-11-20T07:07:17;17.58;;;12.70;;
27576;SDS011;15011;53.380;10.034;2022-11-20T07:12:18;25.15;;;15.63;;
27576;SDS011;15011;53.380;10.034;2022-11-20T07:17:18;22.52;;;14.38;;
27576;SDS011;15011;53.380;10.034;2022-11-20T07:22:18;21.90;;;15.07;;
27576;SDS011;15011;53.380;10.034;2022-11-20T07:27:21;22.35;;;13.48;;
27576;SDS011;15011;53.380;10.034;2022-11-20T07:32:22;23.40;;;14.50;;
27576;SDS011;15011;53.380;10.034;2022-11-20T07:37:22;23.67;;;15.23;;
27576;SDS011;15011;53.380;10.034;2022-11-20T07:42:23;20.83;;;12.88;;
27576;SDS011;15011;53.380;10.034;2022-11-20T07:47:23;22.58;;;14.65;;
27576;SDS011;15011;53.380;10.034;2022-11-20T07:52:25;17.65;;;11.18;;
27576;SDS011;15011;53.380;10.034;2022-11-20T07:57:25;19.20;;;12.32;;
27576;SDS011;15011;53.380;10.034;2022-11-20T08:02:26;18.33;;;12.02;;
27576;SDS011;15011;53.380;10.034;2022-11-20T08:07:27;20.10;;;11.45;;
27576;SDS011;15011;53.380;10.034;2022-11-20T08:12:27;19.20;;;11.65;;
27576;SDS011;15011;53.380;10.034;2022-11-20T08:17:46;17.50;;;11.77;;
27576;SDS011;15011;53.380;10.034;2022-11-20T08:22:46;18.77;;;12.00;;
27576;SDS011;15011;53.380;10.034;2022-11-20T08:27:47;16.35;;;11.43;;
27576;SDS011;15011;53.380;10.034;2022-11-20T08:32:47;15.27;;;9.77;;
27576;SDS011;15011;53.380;10.034;2022-11-20T08:37:48;17.60;;;11.10;;
27576;SDS011;15011;53.380;10.034;2022-11-20T08:42:50;12.63;;;9.35;;
27576;SDS011;15011;53.380;10.034;2022-11-20T08:47:50;18.55;;;10.07;;
27576;SDS011;15011;53.380;10.034;2022-11-20T08:52:51;11.77;;;8.15;;
27576;SDS011;15011;53.380;10.034;2022-11-20T08:57:51;12.80;;;8.68;;
27576;SDS011;15011;53.380;10.034;2022-11-20T09:02:52;12.00;;;7.22;;
27576;SDS011;15011;53.380;10.034;2022-11-20T09:07:55;11.00;;;7.15;;
27576;SDS011;15011;53.380;10.034;2022-11-20T09:12:56;11.50;;;8.05;;
27576;SDS011;15011;53.380;10.034;2022-11-20T09:17:58;16.45;;;9.10;;
27576;SDS011;15011;53.380;10.034;2022-11-20T09:22:59;13.52;;;8.27;;
27576;SDS011;15011;53.380;10.034;2022-11-20T09:28:00;13.45;;;8.43;;
27576;SDS011;15011;53.380;10.034;2022-11-20T09:33:00;10.05;;;8.27;;
27576;SDS011;15011;53.380;10.034;2022-11-20T09:38:07;11.73;;;8.65;;
27576;SDS011;15011;53.380;10.034;2022-11-20T09:48:36;9.02;;;6.88;;
27576;SDS011;15011;53.380;10.034;2022-11-20T09:53:52;10.48;;;6.90;;
27576;SDS011;15011;53.380;10.034;2022-11-20T09:59:02;9.55;;;6.70;;
27576;SDS011;15011;53.380;10.034;2022-11-20T10:19:38;8.73;;;6.22;;
27576;SDS011;15011;53.380;10.034;2022-11-20T10:24:55;9.38;;;6.22;;
27576;SDS011;15011;53.380;10.034;2022-11-20T10:30:08;6.95;;;5.20;;
27576;SDS011;15011;53.380;10.034;2022-11-20T10:35:15;9.27;;;5.90;;
27576;SDS011;15011;53.380;10.034;2022-11-20T10:51:45;5.95;;;4.50;;
27576;SDS011;15011;53.380;10.034;2022-11-20T10:56:46;6.78;;;5.15;;
27576;SDS011;15011;53.380;10.034;2022-11-20T11:01:47;5.93;;;4.40;;
27576;SDS011;15011;53.380;10.034;2022-11-20T11:06:47;8.18;;;3.80;;
27576;SDS011;15011;53.380;10.034;2022-11-20T11:11:49;6.38;;;3.17;;
27576;SDS011;15011;53.380;10.034;2022-11-20T11:16:53;5.70;;;3.40;;
27576;SDS011;15011;53.380;10.034;2022-11-20T11:21:56;4.57;;;2.92;;
27576;SDS011;15011;53.380;10.034;2022-11-20T11:27:00;6.18;;;2.70;;
27576;SDS011;15011;53.380;10.034;2022-11-20T11:37:09;3.67;;;2.78;;
27576;SDS011;15011;53.380;10.034;2022-11-20T11:42:16;5.63;;;3.33;;
27576;SDS011;15011;53.380;10.034;2022-11-20T11:47:21;4.88;;;3.15;;
27576;SDS011;15011;53.380;10.034;2022-11-20T11:52:23;7.60;;;3.95;;
27576;SDS011;15011;53.380;10.034;2022-11-20T12:03:02;6.13;;;3.38;;
27576;SDS011;15011;53.380;10.034;2022-11-20T12:13:20;4.65;;;3.00;;
27576;SDS011;15011;53.380;10.034;2022-11-20T12:18:26;4.65;;;3.45;;
27576;SDS011;15011;53.380;10.034;2022-11-20T12:24:20;4.50;;;3.90;;
27576;SDS011;15011;53.380;10.034;2022-11-20T12:33:58;4.22;;;3.20;;
27576;SDS011;15011;53.380;10.034;2022-11-20T12:39:20;4.85;;;3.10;;
27576;SDS011;15011;53.380;10.034;2022-11-20T12:44:45;4.05;;;2.90;;
27576;SDS011;15011;53.380;10.034;2022-11-20T13:06:26;5.40;;;2.88;;
27576;SDS011;15011;53.380;10.034;2022-11-20T13:11:33;4.18;;;3.10;;
27576;SDS011;15011;53.380;10.034;2022-11-20T13:21:57;8.18;;;4.13;;
27576;SDS011;15011;53.380;10.034;2022-11-20T13:27:02;8.32;;;5.20;;
27576;SDS011;15011;53.380;10.034;2022-11-20T13:32:16;7.60;;;5.60;;
27576;SDS011;15011;53.380;10.034;2022-11-20T13:37:25;8.02;;;3.25;;
27576;SDS011;15011;53.380;10.034;2022-11-20T13:42:38;4.13;;;3.10;;
27576;SDS011;15011;53.380;10.034;2022-11-20T13:47:46;5.28;;;2.97;;
27576;SDS011;15011;53.380;10.034;2022-11-20T13:53:10;4.43;;;3.20;;
27576;SDS011;15011;53.380;10.034;2022-11-20T13:58:24;4.30;;;3.10;;
27576;SDS011;15011;53.380;10.034;2022-11-20T14:03:32;3.28;;;2.97;;
27576;SDS011;15011;53.380;10.034;2022-11-20T14:08:41;3.53;;;2.53;;
27576;SDS011;15011;53.380;10.034;2022-11-20T14:14:17;16.77;;;10.20;;
27576;SDS011;15011;53.380;10.034;2022-11-20T14:24:21;5.18;;;3.05;;
27576;SDS011;15011;53.380;10.034;2022-11-20T14:29:44;8.40;;;5.32;;
27576;SDS011;15011;53.380;10.034;2022-11-20T14:34:44;4.65;;;3.08;;
27576;SDS011;15011;53.380;10.034;2022-11-20T14:39:50;24.42;;;13.55;;
27576;SDS011;15011;53.380;10.034;2022-11-20T14:44:56;9.48;;;5.28;;
27576;SDS011;15011;53.380;10.034;2022-11-20T14:49:58;7.00;;;3.20;;
27576;SDS011;15011;53.380;10.034;2022-11-20T14:54:59;4.05;;;3.25;;
27576;SDS011;15011;53.380;10.034;2022-11-20T15:00:19;2.63;;;2.40;;
27576;SDS011;15011;53.380;10.034;2022-11-20T15:05:24;4.00;;;3.13;;
27576;SDS011;15011;53.380;10.034;2022-11-20T15:10:26;4.30;;;3.20;;
27576;SDS011;15011;53.380;10.034;2022-11-20T15:15:32;9.70;;;5.82;;
27576;SDS011;15011;53.380;10.034;2022-11-20T15:20:35;8.75;;;4.93;;
27576;SDS011;15011;53.380;10.034;2022-11-20T15:25:36;5.72;;;3.92;;
27576;SDS011;15011;53.380;10.034;2022-11-20T15:30:38;5.90;;;3.50;;
27576;SDS011;15011;53.380;10.034;2022-11-20T15:35:38;4.97;;;3.97;;
27576;SDS011;15011;53.380;10.034;2022-11-20T15:40:39;6.65;;;4.32;;
27576;SDS011;15011;53.380;10.034;2022-11-20T15:56:13;7.28;;;4.93;;
27576;SDS011;15011;53.380;10.034;2022-11-20T16:01:15;7.53;;;5.05;;
27576;SDS011;15011;53.380;10.034;2022-11-20T16:06:17;7.72;;;5.70;;
27576;SDS011;15011;53.380;10.034;2022-11-20T16:11:17;7.90;;;5.68;;
27576;SDS011;15011;53.380;10.034;2022-11-20T16:16:22;10.63;;;6.70;;
27576;SDS011;15011;53.380;10.034;2022-11-20T16:21:29;29.20;;;11.00;;
27576;SDS011;15011;53.380;10.034;2022-11-20T16:26:32;9.30;;;6.88;;
27576;SDS011;15011;53.380;10.034;2022-11-20T16:31:33;11.50;;;7.97;;
27576;SDS011;15011;53.380;10.034;2022-11-20T16:36:33;12.93;;;8.55;;
27576;SDS011;15011;53.380;10.034;2022-11-20T16:41:34;11.45;;;7.75;;
27576;SDS011;15011;53.380;10.034;2022-11-20T16:46:35;12.65;;;8.43;;
27576;SDS011;15011;53.380;10.034;2022-11-20T16:51:36;16.05;;;9.75;;
27576;SDS011;15011;53.380;10.034;2022-11-20T16:56:37;13.65;;;9.63;;
27576;SDS011;15011;53.380;10.034;2022-11-20T17:01:38;17.60;;;12.18;;
27576;SDS011;15011;53.380;10.034;2022-11-20T17:11:43;15.52;;;9.98;;
27576;SDS011;15011;53.380;10.034;2022-11-20T17:16:43;15.85;;;11.02;;
27576;SDS011;15011;53.380;10.034;2022-11-20T17:21:44;16.60;;;11.32;;
27576;SDS011;15011;53.380;10.034;2022-11-20T17:26:46;17.77;;;12.60;;
27576;SDS011;15011;53.380;10.034;2022-11-20T17:31:48;19.30;;;13.40;;
27576;SDS011;15011;53.380;10.034;2022-11-20T17:36:48;22.70;;;14.35;;
27576;SDS011;15011;53.380;10.034;2022-11-20T17:41:49;21.92;;;15.50;;
27576;SDS011;15011;53.380;10.034;2022-11-20T17:47:09;24.77;;;17.52;;
27576;SDS011;15011;53.380;10.034;2022-11-20T17:52:10;24.60;;;16.92;;
27576;SDS011;15011;53.380;10.034;2022-11-20T17:57:10;31.52;;;19.30;;
27576;SDS011;15011;53.380;10.034;2022-11-20T18:02:29;27.73;;;18.38;;
27576;SDS011;15011;53.380;10.034;2022-11-20T18:07:29;31.63;;;19.38;;
27576;SDS011;15011;53.380;10.034;2022-11-20T18:12:30;36.95;;;21.85;;
27576;SDS011;15011;53.380;10.034;2022-11-20T18:17:30;35.50;;;23.25;;
27576;SDS011;15011;53.380;10.034;2022-11-20T18:22:31;34.33;;;22.55;;
27576;SDS011;15011;53.380;10.034;2022-11-20T18:27:31;34.10;;;22.33;;
27576;SDS011;15011;53.380;10.034;2022-11-20T18:32:33;39.05;;;25.27;;
27576;SDS011;15011;53.380;10.034;2022-11-20T18:37:33;39.37;;;25.60;;
27576;SDS011;15011;53.380;10.034;2022-11-20T18:42:35;44.03;;;26.50;;
27576;SDS011;15011;53.380;10.034;2022-11-20T18:47:54;44.70;;;27.02;;
27576;SDS011;15011;53.380;10.034;2022-11-20T18:52:55;39.50;;;25.38;;
27576;SDS011;15011;53.380;10.034;2022-11-20T18:57:55;41.28;;;25.98;;
27576;SDS011;15011;53.380;10.034;2022-11-20T19:02:55;50.60;;;30.13;;
27576;SDS011;15011;53.380;10.034;2022-11-20T19:07:56;40.42;;;25.55;;
27576;SDS011;15011;53.380;10.034;2022-11-20T19:12:56;38.72;;;25.15;;
27576;SDS011;15011;53.380;10.034;2022-11-20T19:17:58;45.53;;;27.02;;
27576;SDS011;15011;53.380;10.034;2022-11-20T19:23:00;47.33;;;29.73;;
27576;SDS011;15011;53.380;10.034;2022-11-20T19:28:01;48.95;;;28.23;;
27576;SDS011;15011;53.380;10.034;2022-11-20T19:33:01;50.58;;;29.95;;
27576;SDS011;15011;53.380;10.034;2022-11-20T19:38:01;46.13;;;27.67;;
27576;SDS011;15011;53.380;10.034;2022-11-20T19:43:02;47.65;;;29.27;;
27576;SDS011;15011;53.380;10.034;2022-11-20T19:48:04;51.57;;;30.70;;
27576;SDS011;15011;53.380;10.034;2022-11-20T19:53:04;46.63;;;29.30;;
27576;SDS011;15011;53.380;10.034;2022-11-20T19:58:06;38.80;;;24.77;;
27576;SDS011;15011;53.380;10.034;2022-11-20T20:03:07;54.60;;;32.88;;
27576;SDS011;15011;53.380;10.034;2022-11-20T20:08:07;55.13;;;32.28;;
27576;SDS011;15011;53.380;10.034;2022-11-20T20:13:07;54.42;;;32.75;;
27576;SDS011;15011;53.380;10.034;2022-11-20T20:18:08;57.65;;;32.65;;
27576;SDS011;15011;53.380;10.034;2022-11-20T20:23:08;52.80;;;31.77;;
27576;SDS011;15011;53.380;10.034;2022-11-20T20:28:09;55.80;;;34.10;;
27576;SDS011;15011;53.380;10.034;2022-11-20T20:33:09;49.15;;;30.50;;
27576;SDS011;15011;53.380;10.034;2022-11-20T20:38:10;50.55;;;31.35;;
27576;SDS011;15011;53.380;10.034;2022-11-20T20:43:10;54.28;;;33.17;;
27576;SDS011;15011;53.380;10.034;2022-11-20T20:48:11;54.15;;;33.53;;
27576;SDS011;15011;53.380;10.034;2022-11-20T20:53:11;47.08;;;29.38;;
27576;SDS011;15011;53.380;10.034;2022-11-20T20:58:12;55.90;;;32.33;;
27576;SDS011;15011;53.380;10.034;2022-11-20T21:03:12;234.48;;;93.40;;
27576;SDS011;15011;53.380;10.034;2022-11-20T21:08:12;76.40;;;41.58;;
27576;SDS011;15011;53.380;10.034;2022-11-20T21:13:23;58.33;;;34.97;;
27576;SDS011;15011;53.380;10.034;2022-11-20T21:18:23;61.45;;;34.60;;
27576;SDS011;15011;53.380;10.034;2022-11-20T21:23:24;64.00;;;37.40;;
27576;SDS011;15011;53.380;10.034;2022-11-20T21:28:25;57.07;;;35.03;;
27576;SDS011;15011;53.380;10.034;2022-11-20T21:33:25;64.15;;;37.58;;
27576;SDS011;15011;53.380;10.034;2022-11-20T21:38:26;66.53;;;41.05;;
27576;SDS011;15011;53.380;10.034;2022-11-20T21:43:26;69.35;;;40.42;;
27576;SDS011;15011;53.380;10.034;2022-11-20T21:48:27;61.85;;;37.40;;
27576;SDS011;15011;53.380;10.034;2022-11-20T21:53:31;71.72;;;39.92;;
27576;SDS011;15011;53.380;10.034;2022-11-20T21:58:32;61.75;;;34.97;;
27576;SDS011;15011;53.380;10.034;2022-11-20T22:03:34;51.30;;;31.93;;
27576;SDS011;15011;53.380;10.034;2022-11-20T22:08:36;51.63;;;31.80;;
27576;SDS011;15011;53.380;10.034;2022-11-20T22:13:37;55.27;;;33.27;;
27576;SDS011;15011;53.380;10.034;2022-11-20T22:18:56;57.80;;;34.53;;
27576;SDS011;15011;53.380;10.034;2022-11-20T22:23:57;60.28;;;36.80;;
27576;SDS011;15011;53.380;10.034;2022-11-20T22:28:58;63.65;;;37.85;;
27576;SDS011;15011;53.380;10.034;2022-11-20T22:34:00;65.72;;;36.42;;
27576;SDS011;15011;53.380;10.034;2022-11-20T22:39:01;84.35;;;45.30;;
27576;SDS011;15011;53.380;10.034;2022-11-20T22:44:03;62.42;;;36.30;;
27576;SDS011;15011;53.380;10.034;2022-11-20T22:49:06;67.35;;;39.22;;
27576;SDS011;15011;53.380;10.034;2022-11-20T22:54:09;63.55;;;37.17;;
27576;SDS011;15011;53.380;10.034;2022-11-20T22:59:10;54.78;;;32.50;;
27576;SDS011;15011;53.380;10.034;2022-11-20T23:04:10;56.83;;;34.05;;
27576;SDS011;15011;53.380;10.034;2022-11-20T23:09:11;57.30;;;34.85;;
27576;SDS011;15011;53.380;10.034;2022-11-20T23:14:13;56.45;;;33.47;;
27576;SDS011;15011;53.380;10.034;2022-11-20T23:19:14;49.63;;;30.13;;
27576;SDS011;15011;53.380;10.034;2022-11-20T23:24:15;46.55;;;29.40;;
27576;SDS011;15011;53.380;10.034;2022-11-20T23:29:15;49.20;;;30.08;;
27576;SDS011;15011;53.380;10.034;2022-11-20T23:34:16;112.65;;;36.63;;
27576;SDS011;15011;53.380;10.034;2022-11-20T23:39:16;145.32;;;43.85;;
27576;SDS011;15011;53.380;10.034;2022-11-20T23:44:17;65.25;;;36.08;;
27576;SDS011;15011;53.380;10.034;2022-11-20T23:49:17;69.45;;;36.58;;
27576;SDS011;15011;53.380;10.034;2022-11-20T23:54:18;57.53;;;32.85;;
27576;SDS011;15011;53.380;10.034;2022-11-20T23:59:18;164.02;;;41.45;;
